Time;durP1;ratioP1;P1;durP2;ratioP2;P2;SDS_P1;SDS_P2;PMS_P1;PMS_P2;Temp;Humidity;BMP_temperature;BMP_pressure;BME280_temperature;BME280_humidity;BME280_pressure;Samples;Min_cycle;Max_cycle;Signal;HPM_P1;HPM_P2
2023/08/17 00:00:52;;;;;;;;;;;;;;;23.86;45.28;100939.59;4906496;28;98559;-80
2023/08/17 00:03:18;;;;;;;;;;;;;;;23.84;45.27;100930.88;4903775;28;98519;-70
2023/08/17 00:05:45;;;;;;;;;;;;;;;23.80;45.43;100930.78;4918470;28;98251;-71
2023/08/17 00:08:12;;;;;;;;;;;;;;;23.77;45.52;100935.00;4925050;28;97996;-79
2023/08/17 00:10:40;;;;;;;;;;;;;;;23.76;45.15;100940.88;4922845;28;98488;-79
2023/08/17 00:13:07;;;;;;;;;;;;;;;23.73;45.44;100938.78;4906284;28;98272;-71
2023/08/17 00:15:35;;;;;;;;;;;;;;;23.70;45.30;100929.31;4908308;28;98257;-80
2023/08/17 00:18:02;;;;;;;;;;;;;;;23.70;45.19;100920.25;4925093;28;98202;-71
2023/08/17 00:20:29;;;;;;;;;;;;;;;23.68;45.56;100919.78;4908991;28;98572;-80
2023/08/17 00:22:56;;;;;;;;;;;;;;;23.66;45.57;100911.06;4920755;28;101949;-70
2023/08/17 00:25:22;;;;;;;;;;;;;;;23.63;45.53;100909.78;4955576;28;98280;-79
2023/08/17 00:27:49;;;;;;;;;;;;;;;23.62;45.30;100910.94;4917444;28;98034;-70
2023/08/17 00:30:15;;;;;;;;;;;;;;;23.59;45.42;100908.88;4897079;28;98313;-79
2023/08/17 00:32:42;;;;;;;;;;;;;;;23.57;45.52;100911.16;4928606;28;98889;-78
2023/08/17 00:35:09;;;;;;;;;;;;;;;23.55;45.39;100905.19;4923573;28;98148;-79
2023/08/17 00:37:35;;;;;;;;;;;;;;;23.53;45.55;100899.22;4923316;28;98406;-70
2023/08/17 00:40:02;;;;;;;;;;;;;;;23.49;45.40;100904.63;4924396;28;98129;-79
2023/08/17 00:42:30;;;;;;;;;;;;;;;23.45;45.52;100908.41;4928113;28;99421;-79
2023/08/17 00:44:58;;;;;;;;;;;;;;;23.41;45.53;100902.78;4911974;28;98175;-70
2023/08/17 00:47:25;;;;;;;;;;;;;;;23.37;45.78;100898.31;4919386;28;98127;-70
2023/08/17 00:49:52;;;;;;;;;;;;;;;23.34;45.73;100894.28;4921092;28;98163;-70
2023/08/17 00:52:20;;;;;;;;;;;;;;;23.32;45.45;100890.31;4908155;28;98728;-71
2023/08/17 00:54:46;;;;;;;;;;;;;;;23.28;45.45;100879.19;4920820;28;98620;-70
2023/08/17 00:57:13;;;;;;;;;;;;;;;23.24;45.58;100872.75;4920743;28;98207;-71
2023/08/17 00:59:39;;;;;;;;;;;;;;;23.20;45.49;100869.91;4930544;28;98268;-79
2023/08/17 01:02:07;;;;;;;;;;;;;;;23.16;45.65;100871.72;4921263;28;98733;-79
2023/08/17 01:04:35;;;;;;;;;;;;;;;23.12;45.44;100859.81;4935681;28;98493;-70
2023/08/17 01:07:02;;;;;;;;;;;;;;;23.09;45.50;100856.94;4920025;28;100160;-70
2023/08/17 01:09:29;;;;;;;;;;;;;;;23.08;45.72;100871.84;4903385;28;98797;-71
2023/08/17 01:12:05;;;;;;;;;;;;;;;23.06;45.65;100874.91;4916979;28;98367;-71
2023/08/17 01:14:37;;;;;;;;;;;;;;;23.04;45.40;100874.47;4894490;28;98236;-79
2023/08/17 01:17:05;;;;;;;;;;;;;;;23.04;45.61;100882.72;4920154;28;97972;-70
2023/08/17 01:19:32;;;;;;;;;;;;;;;23.02;45.62;100880.28;4917534;28;98311;-70
2023/08/17 01:22:04;;;;;;;;;;;;;;;23.00;45.78;100882.59;4908949;28;98818;-79
2023/08/17 01:24:31;;;;;;;;;;;;;;;23.00;45.41;100882.59;4921499;28;98478;-79
2023/08/17 01:26:57;;;;;;;;;;;;;;;22.98;45.70;100873.06;4921892;28;98179;-79
2023/08/17 01:29:25;;;;;;;;;;;;;;;22.95;45.52;100868.25;4937524;28;98435;-70
2023/08/17 01:31:59;;;;;;;;;;;;;;;22.91;45.55;100870.91;4920947;28;98781;-70
2023/08/17 01:34:26;;;;;;;;;;;;;;;22.89;45.58;100878.66;4916940;28;98465;-79
2023/08/17 01:37:00;;;;;;;;;;;;;;;22.85;45.68;100890.66;4909651;28;98658;-70
2023/08/17 01:39:35;;;;;;;;;;;;;;;22.81;45.96;100892.47;4903608;28;98246;-79
2023/08/17 01:42:03;;;;;;;;;;;;;;;22.79;45.83;100892.81;4908472;28;98924;-71
2023/08/17 01:44:29;;;;;;;;;;;;;;;22.74;45.65;100898.53;4920977;28;98094;-70
2023/08/17 01:46:57;;;;;;;;;;;;;;;22.77;45.68;100903.34;4919979;28;98887;-70
2023/08/17 01:49:23;;;;;;;;;;;;;;;22.83;45.65;100904.72;4919404;28;98464;-70
2023/08/17 01:51:49;;;;;;;;;;;;;;;22.87;45.67;100902.94;4921561;28;98688;-70
2023/08/17 01:54:15;;;;;;;;;;;;;;;22.89;45.83;100903.38;4907409;28;129171;-70
2023/08/17 01:56:41;;;;;;;;;;;;;;;22.93;45.59;100901.59;4923625;28;98303;-78
2023/08/17 01:59:07;;;;;;;;;;;;;;;22.95;45.60;100902.06;4916317;28;102491;-78
2023/08/17 02:01:33;;;;;;;;;;;;;;;22.95;45.68;100920.47;4912483;28;98381;-79
2023/08/17 02:04:02;;;;;;;;;;;;;;;22.94;45.78;100922.41;4948675;28;100491;-79
2023/08/17 02:06:29;;;;;;;;;;;;;;;22.95;45.61;100917.72;4933288;28;98072;-70
2023/08/17 02:08:55;;;;;;;;;;;;;;;22.94;45.48;100919.66;4914658;28;98182;-79
2023/08/17 02:11:23;;;;;;;;;;;;;;;22.96;45.55;100913.84;4918034;28;98426;-79
2023/08/17 02:13:50;;;;;;;;;;;;;;;22.96;45.59;100911.09;4901971;28;98073;-79
2023/08/17 02:16:17;;;;;;;;;;;;;;;22.95;45.80;100910.31;4899996;28;98131;-79
2023/08/17 02:18:45;;;;;;;;;;;;;;;22.96;45.80;100909.16;4899487;28;98317;-79
2023/08/17 02:21:12;;;;;;;;;;;;;;;22.96;45.67;100909.16;4903938;28;99182;-71
2023/08/17 02:23:38;;;;;;;;;;;;;;;22.96;45.83;100914.66;4901291;28;126031;-71
2023/08/17 02:26:04;;;;;;;;;;;;;;;22.96;45.73;100913.84;4932587;28;127733;-71
2023/08/17 02:28:32;;;;;;;;;;;;;;;22.96;46.03;100911.09;4905814;28;98681;-79
2023/08/17 02:31:00;;;;;;;;;;;;;;;22.95;45.67;100918.56;4904294;28;100850;-80
2023/08/17 02:33:26;;;;;;;;;;;;;;;22.94;45.69;100924.38;4918351;28;99587;-79
2023/08/17 02:35:53;;;;;;;;;;;;;;;22.91;45.71;100919.53;4905400;28;98311;-79
2023/08/17 02:38:20;;;;;;;;;;;;;;;22.88;45.54;100918.25;4915891;28;98048;-70
2023/08/17 02:40:48;;;;;;;;;;;;;;;22.85;45.72;100918.94;4906530;28;98177;-80
2023/08/17 02:43:14;;;;;;;;;;;;;;;22.81;45.96;100920.75;4906715;28;98164;-79
2023/08/17 02:45:40;;;;;;;;;;;;;;;22.76;45.75;100919.03;4883730;28;98276;-70
2023/08/17 02:48:06;;;;;;;;;;;;;;;22.72;45.98;100915.34;4887665;28;98016;-71
2023/08/17 02:50:33;;;;;;;;;;;;;;;22.70;45.83;100920.38;4907487;28;99877;-71
2023/08/17 02:53:01;;;;;;;;;;;;;;;22.65;45.89;100920.59;4887225;28;98150;-79
2023/08/17 02:55:28;;;;;;;;;;;;;;;22.62;46.06;100920.47;4932481;28;98192;-71
2023/08/17 02:57:57;;;;;;;;;;;;;;;22.59;46.00;100921.13;4907226;28;98002;-80
2023/08/17 03:00:24;;;;;;;;;;;;;;;22.55;46.14;100923.75;4905948;28;98932;-71
2023/08/17 03:02:53;;;;;;;;;;;;;;;22.52;46.02;100919.75;4918080;28;98683;-79
2023/08/17 03:05:20;;;;;;;;;;;;;;;22.50;45.93;100921.22;4920608;28;97897;-79
2023/08/17 03:07:47;;;;;;;;;;;;;;;22.47;45.87;100919.94;4916270;28;98436;-79
2023/08/17 03:10:14;;;;;;;;;;;;;;;22.46;45.87;100915.59;4900812;28;98183;-79
2023/08/17 03:12:40;;;;;;;;;;;;;;;22.44;45.87;100917.88;4900155;28;98112;-71
2023/08/17 03:15:07;;;;;;;;;;;;;;;22.43;45.97;100916.25;4903406;28;98814;-71
2023/08/17 03:17:37;;;;;;;;;;;;;;;22.43;46.08;100912.72;4907270;28;98115;-71
2023/08/17 03:20:06;;;;;;;;;;;;;;;22.41;46.07;100917.75;4898357;28;98033;-80
2023/08/17 03:22:33;;;;;;;;;;;;;;;22.40;45.96;100925.19;4884134;28;100817;-79
2023/08/17 03:25:02;;;;;;;;;;;;;;;22.40;46.13;100919.69;4901946;28;98358;-79
2023/08/17 03:27:29;;;;;;;;;;;;;;;22.40;45.96;100924.38;4906714;28;98160;-79
2023/08/17 03:29:57;;;;;;;;;;;;;;;22.39;45.97;100931.00;4894094;28;98231;-79
2023/08/17 03:32:23;;;;;;;;;;;;;;;22.38;46.08;100934.91;4899037;28;98067;-70
2023/08/17 03:34:50;;;;;;;;;;;;;;;22.36;46.07;100938.00;4893430;28;97984;-79
2023/08/17 03:37:17;;;;;;;;;;;;;;;22.33;45.98;100933.16;4899476;28;98172;-70
2023/08/17 03:39:43;;;;;;;;;;;;;;;22.31;46.06;100932.69;4900673;28;98199;-79
2023/08/17 03:42:10;;;;;;;;;;;;;;;22.31;45.90;100927.19;4915317;28;98107;-70
2023/08/17 03:44:38;;;;;;;;;;;;;;;22.29;46.02;100915.75;4904094;28;98153;-79
2023/08/17 03:47:07;;;;;;;;;;;;;;;22.26;46.09;100914.47;4902389;28;98369;-71
2023/08/17 03:49:35;;;;;;;;;;;;;;;22.25;46.03;100912.06;4884656;28;99358;-79
2023/08/17 03:52:03;;;;;;;;;;;;;;;22.23;46.02;100904.16;4922157;28;98688;-71
2023/08/17 03:54:29;;;;;;;;;;;;;;;22.23;46.00;100909.63;4907049;28;99815;-70
2023/08/17 03:56:56;;;;;;;;;;;;;;;22.21;45.95;100906.44;4902407;28;98492;-71
2023/08/17 03:59:24;;;;;;;;;;;;;;;22.20;46.10;100910.31;4883973;28;99106;-71
2023/08/17 04:01:51;;;;;;;;;;;;;;;22.20;46.16;100901.28;4903876;28;99442;-80
2023/08/17 04:04:18;;;;;;;;;;;;;;;22.19;46.00;100900.47;4898028;28;98078;-80
2023/08/17 04:06:45;;;;;;;;;;;;;;;22.19;46.00;100905.97;4902457;28;98260;-72
2023/08/17 04:09:12;;;;;;;;;;;;;;;22.20;46.05;100907.56;4900900;28;98276;-80
2023/08/17 04:11:38;;;;;;;;;;;;;;;22.21;45.91;100903.69;4900069;28;99718;-72
2023/08/17 04:14:05;;;;;;;;;;;;;;;22.22;46.11;100910.00;4906413;28;98258;-72
2023/08/17 04:16:31;;;;;;;;;;;;;;;22.22;45.91;100916.28;4900509;28;98432;-80
2023/08/17 04:18:58;;;;;;;;;;;;;;;22.25;45.94;100918.34;4898697;28;99559;-71
2023/08/17 04:21:24;;;;;;;;;;;;;;;22.26;45.78;100919.97;4916454;28;98326;-72
2023/08/17 04:23:51;;;;;;;;;;;;;;;22.28;46.03;100908.63;4887181;28;99102;-76
2023/08/17 04:26:17;;;;;;;;;;;;;;;22.27;45.93;100913.31;4882434;28;98068;-72
2023/08/17 04:28:43;;;;;;;;;;;;;;;22.27;46.00;100907.03;4901577;28;98244;-78
2023/08/17 04:31:11;;;;;;;;;;;;;;;22.28;45.79;100917.69;4898642;28;98170;-79
2023/08/17 04:33:37;;;;;;;;;;;;;;;22.31;45.86;100918.94;4901194;28;98580;-71
2023/08/17 04:36:04;;;;;;;;;;;;;;;22.30;45.82;100923.63;4901796;28;99167;-80
2023/08/17 04:38:31;;;;;;;;;;;;;;;22.32;45.94;100925.25;4908216;28;98400;-79
2023/08/17 04:40:58;;;;;;;;;;;;;;;22.35;45.95;100932.81;4916988;28;99091;-71
2023/08/17 04:43:24;;;;;;;;;;;;;;;22.35;45.76;100933.59;4903609;28;98134;-79
2023/08/17 04:45:51;;;;;;;;;;;;;;;22.39;45.81;100939.25;4882826;28;98613;-71
2023/08/17 04:48:18;;;;;;;;;;;;;;;22.40;45.69;100933.44;4896917;28;98228;-79
2023/08/17 04:50:45;;;;;;;;;;;;;;;22.43;45.77;100926.44;4917098;28;98238;-79
2023/08/17 04:53:12;;;;;;;;;;;;;;;22.45;45.70;100926.91;4923105;28;98384;-70
2023/08/17 04:55:39;;;;;;;;;;;;;;;22.47;45.68;100928.19;4899967;28;98133;-79
2023/08/17 04:58:06;;;;;;;;;;;;;;;22.51;45.87;100928.31;4901698;28;100450;-70
2023/08/17 05:00:33;;;;;;;;;;;;;;;22.53;45.90;100929.59;4919516;28;97910;-70
2023/08/17 05:03:01;;;;;;;;;;;;;;;22.60;45.50;100930.97;4905662;28;98223;-79
2023/08/17 05:05:27;;;;;;;;;;;;;;;22.64;45.55;100932.72;4905842;28;99034;-70
2023/08/17 05:07:55;;;;;;;;;;;;;;;22.70;45.53;100934.09;4897569;28;98241;-78
2023/08/17 05:10:22;;;;;;;;;;;;;;;22.75;45.45;100924.84;4912680;28;98618;-78
2023/08/17 05:12:49;;;;;;;;;;;;;;;22.82;45.39;100929.81;4934428;28;119903;-70
2023/08/17 05:15:16;;;;;;;;;;;;;;;22.82;45.60;100927.84;4945540;28;98376;-79
2023/08/17 05:17:43;;;;;;;;;;;;;;;22.84;45.48;100946.78;4898050;28;98309;-71
2023/08/17 05:20:10;;;;;;;;;;;;;;;22.87;45.43;100946.06;4918407;28;99792;-70
2023/08/17 05:22:39;;;;;;;;;;;;;;;22.91;45.60;100950.59;4920220;28;98736;-78
2023/08/17 05:25:07;;;;;;;;;;;;;;;22.95;45.44;100957.03;4922119;28;98226;-79
2023/08/17 05:27:33;;;;;;;;;;;;;;;22.99;45.55;100966.19;4919041;28;98452;-70
2023/08/17 05:30:00;;;;;;;;;;;;;;;23.03;45.34;100963.56;4912357;28;98535;-79
2023/08/17 05:32:26;;;;;;;;;;;;;;;23.10;45.53;100963.00;4915147;28;99926;-70
2023/08/17 05:34:54;;;;;;;;;;;;;;;23.17;45.14;100966.81;4934348;28;98163;-79
2023/08/17 05:37:21;;;;;;;;;;;;;;;23.24;45.19;100958.00;4922418;28;98170;-79
2023/08/17 05:39:49;;;;;;;;;;;;;;;23.24;45.26;100956.06;4901934;28;98397;-79
2023/08/17 05:42:16;;;;;;;;;;;;;;;23.26;45.37;100950.19;4940304;28;98709;-70
2023/08/17 05:44:43;;;;;;;;;;;;;;;23.31;45.24;100957.44;4920908;28;99424;-70
2023/08/17 05:47:09;;;;;;;;;;;;;;;23.38;45.09;100955.72;4917628;28;99667;-70
2023/08/17 05:49:37;;;;;;;;;;;;;;;23.47;44.98;100967.44;4919951;28;98469;-79
2023/08/17 05:52:06;;;;;;;;;;;;;;;23.58;45.06;100961.47;4912845;28;98367;-79
2023/08/17 05:54:34;;;;;;;;;;;;;;;23.64;45.14;100966.41;4903339;28;98243;-71
2023/08/17 05:57:02;;;;;;;;;;;;;;;23.66;44.99;100974.38;4918946;28;98150;-79
2023/08/17 05:59:29;;;;;;;;;;;;;;;23.70;45.24;100981.59;4914964;28;98224;-79
2023/08/17 06:01:55;;;;;;;;;;;;;;;23.88;45.00;100984.88;4898459;28;98285;-79
2023/08/17 06:04:22;;;;;;;;;;;;;;;23.98;44.86;100984.44;4932648;28;98259;-79
2023/08/17 06:06:48;;;;;;;;;;;;;;;24.18;44.77;100992.91;4934547;28;98478;-79
2023/08/17 06:09:16;;;;;;;;;;;;;;;24.29;44.53;101001.47;4906522;28;98327;-71
2023/08/17 06:11:42;;;;;;;;;;;;;;;24.39;44.46;101006.53;4894373;28;99444;-70
2023/08/17 06:14:09;;;;;;;;;;;;;;;24.51;44.48;101005.72;4899952;28;98377;-79
2023/08/17 06:16:36;;;;;;;;;;;;;;;24.59;44.61;100989.03;4885242;28;99374;-79
2023/08/17 06:19:02;;;;;;;;;;;;;;;24.70;44.50;100978.31;4894953;28;99608;-70
2023/08/17 06:21:29;;;;;;;;;;;;;;;24.83;44.41;100970.78;4880128;28;98444;-80
2023/08/17 06:23:55;;;;;;;;;;;;;;;25.06;44.19;100971.81;4879876;28;98379;-79
2023/08/17 06:26:22;;;;;;;;;;;;;;;25.20;43.97;100971.44;4910593;28;98531;-79
2023/08/17 06:28:48;;;;;;;;;;;;;;;25.46;44.09;100963.41;4880482;28;98565;-70
2023/08/17 06:31:18;;;;;;;;;;;;;;;25.85;43.62;100979.38;4881636;28;98202;-71
2023/08/17 06:33:45;;;;;;;;;;;;;;;26.13;43.47;100979.22;4896128;28;98244;-70
2023/08/17 06:36:16;;;;;;;;;;;;;;;26.38;43.22;100986.09;4895690;28;98055;-79
2023/08/17 06:38:42;;;;;;;;;;;;;;;26.76;42.90;100992.81;4897068;28;98665;-79
2023/08/17 06:41:09;;;;;;;;;;;;;;;27.04;42.74;101000.88;4891755;28;98663;-79
2023/08/17 06:43:35;;;;;;;;;;;;;;;27.13;42.92;101003.44;4894500;28;98119;-70
2023/08/17 06:46:05;;;;;;;;;;;;;;;26.89;43.30;100993.47;4896097;28;98684;-79
2023/08/17 06:48:32;;;;;;;;;;;;;;;26.51;43.67;100991.50;4893545;28;98401;-79
2023/08/17 06:50:58;;;;;;;;;;;;;;;26.21;44.08;100992.00;4880407;28;98077;-71
2023/08/17 06:53:26;;;;;;;;;;;;;;;26.41;43.92;100993.66;4900357;28;98426;-79
2023/08/17 06:55:52;;;;;;;;;;;;;;;26.57;43.52;100995.59;4898369;28;102569;-70
2023/08/17 06:58:20;;;;;;;;;;;;;;;26.61;43.72;101004.75;4882386;28;98068;-71
2023/08/17 07:00:46;;;;;;;;;;;;;;;26.33;44.06;101005.72;4913676;28;98129;-70
2023/08/17 07:03:12;;;;;;;;;;;;;;;26.19;44.26;101002.63;4895899;28;98720;-71
2023/08/17 07:05:40;;;;;;;;;;;;;;;26.16;44.18;100993.09;4881531;28;99160;-71
2023/08/17 07:08:10;;;;;;;;;;;;;;;26.37;43.98;100994.72;4910188;28;99561;-74
2023/08/17 07:10:36;;;;;;;;;;;;;;;26.39;43.94;100997.94;4885052;28;99332;-70
2023/08/17 07:13:03;;;;;;;;;;;;;;;27.35;42.74;101001.84;4896592;28;98396;-78
2023/08/17 07:15:30;;;;;;;;;;;;;;;27.79;42.40;101007.78;4895735;28;98494;-70
2023/08/17 07:17:56;;;;;;;;;;;;;;;28.13;42.49;101016.97;4893164;28;100064;-70
2023/08/17 07:20:23;;;;;;;;;;;;;;;29.06;41.60;101020.97;4878183;28;99039;-79
2023/08/17 07:22:49;;;;;;;;;;;;;;;28.79;42.03;101011.94;4910183;28;98621;-71
2023/08/17 07:25:16;;;;;;;;;;;;;;;28.71;42.16;101012.22;4915503;28;98088;-71
2023/08/17 07:27:43;;;;;;;;;;;;;;;28.67;42.68;101014.94;4889785;28;98422;-78
2023/08/17 07:30:10;;;;;;;;;;;;;;;29.08;42.02;101013.09;4911107;28;98387;-71
2023/08/17 07:32:36;;;;;;;;;;;;;;;28.92;42.45;101012.47;4896934;28;99611;-79
2023/08/17 07:35:03;;;;;;;;;;;;;;;28.57;43.17;101004.53;4921583;28;98399;-79
2023/08/17 07:37:33;;;;;;;;;;;;;;;28.31;43.36;100997.84;4898967;28;98919;-79
2023/08/17 07:40:00;;;;;;;;;;;;;;;28.12;43.35;100992.41;4894366;28;98714;-78
2023/08/17 07:42:27;;;;;;;;;;;;;;;28.10;43.36;100986.47;4879367;28;98564;-71
2023/08/17 07:44:54;;;;;;;;;;;;;;;28.29;43.10;100991.84;4864726;28;100115;-78
2023/08/17 07:47:21;;;;;;;;;;;;;;;28.77;42.55;100972.69;4894736;28;98550;-78
2023/08/17 07:49:49;;;;;;;;;;;;;;;29.34;42.01;100983.59;4863262;28;98365;-79
2023/08/17 07:52:15;;;;;;;;;;;;;;;30.62;40.66;100974.53;4890606;28;99708;-72
2023/08/17 07:54:42;;;;;;;;;;;;;;;31.36;40.31;100979.50;4915574;28;99759;-71
2023/08/17 07:57:10;;;;;;;;;;;;;;;31.92;39.97;100974.31;4913907;28;98819;-70
2023/08/17 07:59:37;;;;;;;;;;;;;;;32.87;39.68;100971.56;4899009;28;99356;-79
2023/08/17 08:02:03;;;;;;;;;;;;;;;33.75;39.09;100968.50;4895848;28;98729;-79
2023/08/17 08:04:29;;;;;;;;;;;;;;;34.50;38.46;100976.88;4895197;28;98073;-71
2023/08/17 08:06:56;;;;;;;;;;;;;;;34.71;38.89;100973.03;4892258;28;98403;-71
2023/08/17 08:09:23;;;;;;;;;;;;;;;34.79;39.32;100970.91;4894210;28;98262;-71
2023/08/17 08:11:50;;;;;;;;;;;;;;;35.74;38.29;100956.59;4911065;28;98160;-71
2023/08/17 08:14:18;;;;;;;;;;;;;;;36.44;38.08;100955.63;4908803;28;99706;-71
2023/08/17 08:16:45;;;;;;;;;;;;;;;37.17;37.21;100952.78;4887970;28;102223;-79
2023/08/17 08:19:11;;;;;;;;;;;;;;;37.71;37.59;100958.66;4916548;28;98127;-71
2023/08/17 08:21:38;;;;;;;;;;;;;;;38.34;37.23;100959.34;4900822;28;98675;-71
2023/08/17 08:24:05;;;;;;;;;;;;;;;38.98;36.79;100952.53;4899224;28;98663;-80
2023/08/17 08:26:31;;;;;;;;;;;;;;;39.60;36.37;100945.66;4918552;28;99129;-80
2023/08/17 08:28:57;;;;;;;;;;;;;;;40.10;36.13;100944.66;4886551;28;98765;-80
2023/08/17 08:31:23;;;;;;;;;;;;;;;40.73;35.96;100946.28;4895620;28;98323;-79
2023/08/17 08:33:51;;;;;;;;;;;;;;;41.31;35.64;100956.03;4880648;28;98447;-80
2023/08/17 08:36:18;;;;;;;;;;;;;;;41.12;36.55;100934.66;4878091;28;98219;-71
2023/08/17 08:38:45;;;;;;;;;;;;;;;41.81;35.98;100941.75;4880070;28;98087;-71
2023/08/17 08:41:11;;;;;;;;;;;;;;;42.42;35.49;100937.75;4863898;28;100048;-79
2023/08/17 08:43:40;;;;;;;;;;;;;;;42.98;35.42;100943.19;4873766;28;98369;-80
2023/08/17 08:46:07;;;;;;;;;;;;;;;43.43;35.33;100929.97;4931292;28;99640;-71
2023/08/17 08:48:34;;;;;;;;;;;;;;;43.65;35.27;100941.78;4897980;28;98566;-80
2023/08/17 08:51:01;;;;;;;;;;;;;;;43.72;35.38;100930.06;4901748;28;98204;-80
2023/08/17 08:53:36;;;;;;;;;;;;;;;43.38;35.99;100929.38;4909887;28;98226;-71
2023/08/17 08:56:03;;;;;;;;;;;;;;;44.15;35.26;100924.94;4916770;28;99975;-69
2023/08/17 08:58:30;;;;;;;;;;;;;;;44.55;34.94;100926.38;4918289;28;98748;-78
2023/08/17 09:00:57;;;;;;;;;;;;;;;44.91;34.88;100916.56;4936829;28;98217;-79
2023/08/17 09:03:25;;;;;;;;;;;;;;;44.85;35.34;100910.06;4922734;28;98620;-70
2023/08/17 09:05:51;;;;;;;;;;;;;;;44.12;36.20;100902.41;4920819;28;99880;-71
2023/08/17 09:08:25;;;;;;;;;;;;;;;43.82;36.22;100905.22;4911876;28;101503;-79
2023/08/17 09:18:38;;;;;;;;;;;;;;;41.58;37.00;100904.41;5487000;22;98634;-69
2023/08/17 09:21:04;;;;;;;;;;;;;;;42.09;36.84;100894.44;4897233;28;108036;-68
2023/08/17 09:23:30;;;;;;;;;;;;;;;42.86;36.20;100896.81;4895181;28;99918;-69
2023/08/17 09:25:59;;;;;;;;;;;;;;;42.99;36.34;100897.34;4895072;28;100258;-78
2023/08/17 09:28:27;;;;;;;;;;;;;;;43.06;36.60;100897.03;4891922;28;97757;-69
2023/08/17 09:31:00;;;;;;;;;;;;;;;43.18;36.77;100894.44;4903071;28;98832;-79
2023/08/17 09:33:29;;;;;;;;;;;;;;;42.89;36.83;100895.88;4904054;28;99460;-80
2023/08/17 09:35:56;;;;;;;;;;;;;;;42.69;37.00;100890.78;4928395;28;98796;-71
2023/08/17 09:38:22;;;;;;;;;;;;;;;42.49;37.12;100890.56;4905950;28;97866;-71
2023/08/17 09:40:49;;;;;;;;;;;;;;;43.70;35.82;100890.03;4880095;28;98156;-80
2023/08/17 09:43:16;;;;;;;;;;;;;;;44.79;34.94;100895.75;4911936;28;100643;-80
2023/08/17 09:45:46;;;;;;;;;;;;;;;45.56;34.45;100887.16;4910553;28;98019;-70
2023/08/17 09:48:13;;;;;;;;;;;;;;;45.78;34.44;100899.53;4890217;28;98884;-70
2023/08/17 09:50:40;;;;;;;;;;;;;;;46.53;34.19;100885.41;4904941;28;98678;-80
2023/08/17 09:53:06;;;;;;;;;;;;;;;46.90;33.87;100884.59;4927365;28;97895;-80
2023/08/17 09:55:33;;;;;;;;;;;;;;;47.01;33.66;100883.88;4890850;28;97993;-80
2023/08/17 09:57:59;;;;;;;;;;;;;;;47.44;33.72;100881.72;4888680;28;97833;-71
2023/08/17 10:00:26;;;;;;;;;;;;;;;47.80;33.69;100879.97;4895442;28;98080;-80
2023/08/17 10:02:52;;;;;;;;;;;;;;;48.11;33.54;100878.19;4895011;28;97980;-79
2023/08/17 10:05:19;;;;;;;;;;;;;;;48.24;33.38;100871.94;4896122;28;98102;-70
2023/08/17 10:07:54;;;;;;;;;;;;;;;48.08;33.62;100877.16;4873214;28;97595;-80
2023/08/17 10:10:26;;;;;;;;;;;;;;;48.26;33.30;100863.63;4880410;28;98171;-80
2023/08/17 10:13:06;;;;;;;;;;;;;;;48.40;33.49;100868.25;4889301;28;98029;-81
2023/08/17 10:15:33;;;;;;;;;;;;;;;48.50;33.46;100863.88;4910464;28;97945;-80
2023/08/17 10:18:03;;;;;;;;;;;;;;;48.38;33.49;100853.72;4911435;28;97755;-80
2023/08/17 10:20:31;;;;;;;;;;;;;;;48.25;33.53;100854.25;4927730;28;98194;-80
2023/08/17 10:23:03;;;;;;;;;;;;;;;48.30;33.92;100849.84;4866595;28;99828;-71
2023/08/17 10:25:29;;;;;;;;;;;;;;;48.40;33.67;100851.91;4913466;28;98201;-72
2023/08/17 10:27:55;;;;;;;;;;;;;;;48.36;33.93;100853.47;4876864;28;98345;-81
2023/08/17 10:30:22;;;;;;;;;;;;;;;48.41;33.94;100846.97;4894850;28;97861;-81
2023/08/17 10:32:48;;;;;;;;;;;;;;;48.36;33.78;100848.53;4891265;28;100443;-70
2023/08/17 10:35:14;;;;;;;;;;;;;;;48.22;34.07;100846.72;4896152;28;99182;-71
2023/08/17 10:37:40;;;;;;;;;;;;;;;48.17;34.11;100836.88;4905624;28;97973;-70
2023/08/17 10:40:07;;;;;;;;;;;;;;;47.95;34.33;100831.16;4894434;28;99858;-71
2023/08/17 10:42:33;;;;;;;;;;;;;;;47.31;34.75;100832.91;4909772;28;98559;-70
2023/08/17 10:45:03;;;;;;;;;;;;;;;47.62;34.57;100829.84;4925445;28;99453;-70
2023/08/17 10:47:31;;;;;;;;;;;;;;;47.76;34.42;100830.16;4907564;28;97679;-70
2023/08/17 10:50:28;;;;;;;;;;;;;;;47.82;34.36;100828.06;4872928;28;97885;-80
2023/08/17 10:52:54;;;;;;;;;;;;;;;47.81;34.10;100824.44;4895648;28;97994;-80
2023/08/17 10:55:37;;;;;;;;;;;;;;;47.60;34.29;100821.06;4891676;28;99511;-70
2023/08/17 10:58:04;;;;;;;;;;;;;;;47.29;34.44;100815.53;4874496;28;97890;-72
2023/08/17 11:00:37;;;;;;;;;;;;;;;47.19;34.59;100809.28;4926036;28;98141;-71
2023/08/17 11:03:17;;;;;;;;;;;;;;;47.44;34.04;100811.19;4874758;28;98141;-81
2023/08/17 11:05:58;;;;;;;;;;;;;;;47.66;34.13;100813.25;4910812;28;98841;-73
2023/08/17 11:08:33;;;;;;;;;;;;;;;47.47;34.31;100812.97;4903567;28;99845;-72
2023/08/17 11:11:09;;;;;;;;;;;;;;;47.23;34.29;100802.03;4908900;28;98268;-80
2023/08/17 11:13:38;;;;;;;;;;;;;;;47.08;34.78;100809.25;4904749;28;111310;-80
2023/08/17 11:16:05;;;;;;;;;;;;;;;46.97;34.69;100796.56;4888942;28;98181;-73
2023/08/17 11:18:32;;;;;;;;;;;;;;;46.72;34.64;100806.00;4877008;28;97724;-71
2023/08/17 11:20:58;;;;;;;;;;;;;;;46.47;35.20;100793.44;4911270;28;99392;-71
2023/08/17 11:23:25;;;;;;;;;;;;;;;45.95;35.52;100797.25;4908725;28;97915;-79
2023/08/17 11:25:55;;;;;;;;;;;;;;;45.85;35.39;100793.03;4895746;28;97743;-79
2023/08/17 11:28:22;;;;;;;;;;;;;;;45.58;35.70;100793.53;4905063;28;97886;-80
2023/08/17 11:30:58;;;;;;;;;;;;;;;45.29;36.01;100787.56;4888874;28;101797;-70
2023/08/17 11:33:26;;;;;;;;;;;;;;;45.01;36.37;100787.25;4909199;28;99970;-80
2023/08/17 11:35:55;;;;;;;;;;;;;;;44.89;36.29;100796.16;4909885;28;115969;-80
2023/08/17 11:38:22;;;;;;;;;;;;;;;44.86;36.16;100786.56;4890567;28;98004;-71
2023/08/17 11:40:50;;;;;;;;;;;;;;;43.88;37.23;100777.66;4891073;28;97887;-72
2023/08/17 11:43:17;;;;;;;;;;;;;;;44.29;36.52;100787.06;4871890;28;102326;-74
2023/08/17 11:45:44;;;;;;;;;;;;;;;44.36;36.41;100783.03;4912272;28;98170;-80
2023/08/17 11:48:10;;;;;;;;;;;;;;;44.38;36.27;100780.50;4891168;28;98346;-80
2023/08/17 11:50:37;;;;;;;;;;;;;;;44.30;36.31;100777.31;4874666;28;97972;-71
2023/08/17 11:53:04;;;;;;;;;;;;;;;44.23;36.42;100780.53;4927407;28;98316;-80
2023/08/17 11:55:30;;;;;;;;;;;;;;;44.13;36.36;100781.91;4891277;28;97915;-70
2023/08/17 11:57:57;;;;;;;;;;;;;;;43.73;36.66;100767.09;4892663;28;98224;-80
2023/08/17 12:00:24;;;;;;;;;;;;;;;43.69;37.02;100777.84;4893069;28;107820;-79
2023/08/17 12:02:51;;;;;;;;;;;;;;;43.75;36.59;100775.91;4891856;28;99541;-73
2023/08/17 12:05:24;;;;;;;;;;;;;;;42.85;37.38;100779.09;4876337;28;98892;-72
2023/08/17 12:07:52;;;;;;;;;;;;;;;43.05;37.08;100773.56;4926224;28;98276;-79
2023/08/17 12:10:19;;;;;;;;;;;;;;;43.00;37.04;100777.09;4909306;28;98211;-80
2023/08/17 12:12:47;;;;;;;;;;;;;;;42.93;37.03;100777.44;4908913;28;98800;-80
2023/08/17 12:15:13;;;;;;;;;;;;;;;42.45;37.87;100771.81;4894928;28;99525;-72
2023/08/17 12:17:47;;;;;;;;;;;;;;;41.97;38.31;100773.75;4889650;28;97907;-72
2023/08/17 12:20:20;;;;;;;;;;;;;;;42.19;37.53;100768.59;4910245;28;97846;-80
2023/08/17 12:22:49;;;;;;;;;;;;;;;42.27;37.71;100767.03;4891786;28;97991;-80
2023/08/17 12:25:15;;;;;;;;;;;;;;;41.12;38.63;100768.72;4906503;28;98968;-72
2023/08/17 12:27:41;;;;;;;;;;;;;;;40.24;39.29;100771.19;4906492;28;97875;-80
2023/08/17 12:30:32;;;;;;;;;;;;;;;40.49;38.60;100773.00;4891098;28;98446;-71
2023/08/17 12:32:58;;;;;;;;;;;;;;;40.76;38.34;100757.34;4880071;28;98984;-72
2023/08/17 12:35:26;;;;;;;;;;;;;;;40.78;38.01;100757.69;4910686;28;97844;-80
2023/08/17 12:37:55;;;;;;;;;;;;;;;40.89;38.06;100763.66;4906176;28;98246;-71
2023/08/17 12:40:23;;;;;;;;;;;;;;;40.94;37.98;100765.84;4902639;28;98286;-71
2023/08/17 12:42:49;;;;;;;;;;;;;;;40.84;37.77;100753.78;4907746;28;98006;-78
2023/08/17 12:45:16;;;;;;;;;;;;;;;40.80;38.06;100749.53;4886812;28;110663;-80